createdAt,value
2022-12-20T00:01:33.421Z,28.61
2022-12-20T00:04:02.556Z,27.05
2022-12-20T00:06:29.649Z,27.34
2022-12-20T00:08:58.770Z,26.00
2022-12-20T00:11:26.956Z,27.42
2022-12-20T00:13:54.030Z,24.97
2022-12-20T00:16:25.158Z,27.74
2022-12-20T00:18:55.085Z,28.78
2022-12-20T00:21:22.372Z,25.75
2022-12-20T00:23:49.241Z,25.44
2022-12-20T00:26:18.745Z,25.81
2022-12-20T00:28:46.144Z,26.07
2022-12-20T00:31:15.336Z,26.51
2022-12-20T00:33:44.980Z,26.46
2022-12-20T00:36:12.231Z,29.57
2022-12-20T00:38:39.261Z,28.21
2022-12-20T00:41:12.537Z,26.43
2022-12-20T00:43:41.086Z,26.13
2022-12-20T00:46:11.680Z,26.36
2022-12-20T00:48:39.498Z,26.94
2022-12-20T00:51:12.248Z,27.50
2022-12-20T00:53:40.443Z,26.76
2022-12-20T00:56:08.915Z,25.34
2022-12-20T00:58:39.321Z,25.68
2022-12-20T01:01:16.450Z,25.99
2022-12-20T01:03:43.324Z,27.61
2022-12-20T01:06:11.431Z,28.03
2022-12-20T01:08:39.507Z,26.65
2022-12-20T01:11:34.603Z,30.88
2022-12-20T01:14:06.163Z,31.39
2022-12-20T01:16:37.895Z,27.64
2022-12-20T01:19:06.814Z,25.95
2022-12-20T01:21:34.652Z,26.67
2022-12-20T01:24:01.396Z,28.40
2022-12-20T01:26:30.153Z,26.83
2022-12-20T01:28:59.953Z,24.88
2022-12-20T01:31:27.322Z,26.12
2022-12-20T01:33:54.841Z,27.36
2022-12-20T01:36:27.619Z,27.03
2022-12-20T01:39:15.613Z,29.21
2022-12-20T01:41:44.040Z,26.79
2022-12-20T01:44:16.826Z,27.56
2022-12-20T01:46:45.067Z,26.40
2022-12-20T01:49:20.538Z,25.04
2022-12-20T01:51:52.065Z,27.21
2022-12-20T01:54:31.206Z,27.62
2022-12-20T01:57:02.350Z,25.86
2022-12-20T01:59:29.727Z,25.16
2022-12-20T02:02:03.521Z,25.67
2022-12-20T02:04:30.489Z,27.61
2022-12-20T02:06:58.156Z,27.76
2022-12-20T02:09:25.159Z,27.62
2022-12-20T02:12:19.976Z,28.80
2022-12-20T02:14:58.555Z,29.71
2022-12-20T02:17:56.680Z,27.36
2022-12-20T02:21:02.406Z,28.87
2022-12-20T02:23:54.269Z,29.26
2022-12-20T02:26:39.924Z,26.38
2022-12-20T02:29:18.804Z,31.44
2022-12-20T02:32:17.202Z,27.56
2022-12-20T02:34:44.718Z,26.93
2022-12-20T02:37:12.127Z,27.24
2022-12-20T02:39:42.112Z,26.83
2022-12-20T02:42:21.615Z,28.50
2022-12-20T02:45:15.503Z,27.84
2022-12-20T02:47:49.927Z,30.40
2022-12-20T02:50:48.687Z,27.12
2022-12-20T02:53:16.849Z,25.87
2022-12-20T02:55:48.152Z,29.62
2022-12-20T02:58:34.702Z,27.55
2022-12-20T03:01:09.264Z,26.12
2022-12-20T03:03:36.919Z,28.54
2022-12-20T03:06:03.906Z,29.10
2022-12-20T03:08:30.785Z,27.56
2022-12-20T03:10:57.965Z,29.03
2022-12-20T03:13:25.826Z,29.14
2022-12-20T03:15:58.903Z,27.81
2022-12-20T03:18:25.740Z,27.29
2022-12-20T03:20:52.458Z,28.62
2022-12-20T03:23:19.248Z,27.44
2022-12-20T03:25:46.334Z,28.18
2022-12-20T03:28:20.692Z,26.16
2022-12-20T03:30:47.639Z,28.19
2022-12-20T03:33:14.457Z,25.54
2022-12-20T03:35:43.047Z,25.88
2022-12-20T03:38:10.867Z,26.59
2022-12-20T03:40:37.734Z,28.33
2022-12-20T03:43:05.422Z,26.58
2022-12-20T03:45:32.223Z,27.87
2022-12-20T03:47:59.030Z,27.45
2022-12-20T03:50:28.303Z,26.13
2022-12-20T03:52:55.952Z,25.16
2022-12-20T03:55:22.830Z,26.10
2022-12-20T03:57:50.472Z,27.74
2022-12-20T04:00:28.060Z,25.39
2022-12-20T04:03:05.895Z,27.42
2022-12-20T04:05:33.614Z,26.61
2022-12-20T04:08:01.007Z,26.40
2022-12-20T04:10:28.079Z,26.53
2022-12-20T04:12:56.486Z,27.17
2022-12-20T04:15:23.799Z,26.72
2022-12-20T04:17:53.903Z,27.53
2022-12-20T04:20:21.091Z,28.94
2022-12-20T04:23:00.955Z,27.48
2022-12-20T04:25:28.152Z,26.20
2022-12-20T04:27:56.184Z,31.11
2022-12-20T04:30:22.898Z,28.93
2022-12-20T04:32:49.885Z,26.07
2022-12-20T04:35:16.686Z,25.37
2022-12-20T04:37:43.614Z,26.24
2022-12-20T04:40:11.404Z,25.97
2022-12-20T04:42:46.470Z,25.80
2022-12-20T04:45:14.854Z,28.53
2022-12-20T04:47:41.761Z,26.88
2022-12-20T04:50:11.463Z,27.81
2022-12-20T04:52:59.842Z,29.10
2022-12-20T04:55:26.748Z,28.02
2022-12-20T04:57:53.432Z,28.41
2022-12-20T05:00:21.073Z,25.92
2022-12-20T05:02:54.322Z,27.18
2022-12-20T05:05:24.316Z,27.60
2022-12-20T05:07:55.332Z,28.61
2022-12-20T05:10:23.214Z,27.93
2022-12-20T05:12:51.329Z,30.44
2022-12-20T05:15:29.786Z,31.42
2022-12-20T05:18:00.371Z,29.86
2022-12-20T05:20:35.098Z,27.21
2022-12-20T05:23:21.361Z,27.59
2022-12-20T05:26:02.635Z,26.09
2022-12-20T05:28:30.546Z,26.46
2022-12-20T05:30:58.106Z,26.78
2022-12-20T05:33:30.453Z,28.04
2022-12-20T05:36:01.632Z,28.16
2022-12-20T05:38:28.432Z,29.62
2022-12-20T05:40:55.787Z,30.34
2022-12-20T05:43:22.833Z,26.35
2022-12-20T05:45:52.935Z,25.65
2022-12-20T05:48:28.668Z,25.97
2022-12-20T05:50:55.851Z,25.39
2022-12-20T05:53:28.641Z,28.23
2022-12-20T05:55:59.392Z,29.83
2022-12-20T05:58:29.858Z,27.11
2022-12-20T06:01:05.651Z,28.35
2022-12-20T06:03:37.997Z,27.43
2022-12-20T06:06:13.919Z,26.00
2022-12-20T06:08:41.156Z,25.35
2022-12-20T06:11:11.810Z,24.25
2022-12-20T06:13:48.871Z,25.84
2022-12-20T06:16:15.942Z,27.22
2022-12-20T06:18:43.678Z,26.12
2022-12-20T06:21:12.467Z,25.40
2022-12-20T06:23:39.173Z,27.41
2022-12-20T06:26:09.832Z,29.46
2022-12-20T06:28:46.381Z,28.69
2022-12-20T06:31:14.003Z,27.72
2022-12-20T06:33:47.892Z,27.15
2022-12-20T06:36:16.430Z,29.56
2022-12-20T06:38:44.259Z,28.46
2022-12-20T06:41:11.379Z,25.90
2022-12-20T06:43:39.083Z,26.07
2022-12-20T06:46:06.451Z,28.41
2022-12-20T06:48:33.251Z,28.76
2022-12-20T06:51:00.158Z,28.91
2022-12-20T06:53:28.039Z,28.68
2022-12-20T06:55:55.066Z,26.64
2022-12-20T06:58:22.512Z,25.15
2022-12-20T07:00:49.693Z,28.71
2022-12-20T07:03:16.724Z,28.66
2022-12-20T07:05:44.095Z,28.43
2022-12-20T07:08:11.256Z,27.50
2022-12-20T07:10:38.055Z,27.53
2022-12-20T07:13:04.792Z,27.26
2022-12-20T07:15:31.654Z,26.13
2022-12-20T07:17:59.360Z,25.71
2022-12-20T07:20:26.469Z,24.11
2022-12-20T07:22:53.320Z,26.89
2022-12-20T07:25:20.284Z,26.48
2022-12-20T07:27:50.136Z,25.70
2022-12-20T07:30:18.184Z,25.92
2022-12-20T07:32:45.260Z,27.89
2022-12-20T07:35:13.296Z,26.15
2022-12-20T07:37:40.394Z,26.34
2022-12-20T07:40:08.606Z,25.31
2022-12-20T07:42:37.320Z,26.90
2022-12-20T07:45:07.820Z,26.83
2022-12-20T07:47:35.965Z,24.90
2022-12-20T07:50:03.737Z,25.72
2022-12-20T07:52:34.722Z,26.39
2022-12-20T07:55:03.965Z,30.67
2022-12-20T07:57:45.305Z,27.29
2022-12-20T08:00:13.549Z,26.49
2022-12-20T08:02:47.197Z,25.42
2022-12-20T08:05:14.794Z,25.86
2022-12-20T08:07:42.960Z,25.48
2022-12-20T08:10:13.541Z,25.48
2022-12-20T08:12:41.917Z,24.39
2022-12-20T08:15:09.109Z,26.43
2022-12-20T08:17:35.838Z,25.86
2022-12-20T08:20:03.121Z,25.71
2022-12-20T08:22:29.854Z,26.84
2022-12-20T08:24:57.103Z,25.55
2022-12-20T08:27:23.847Z,25.45
2022-12-20T08:29:50.643Z,26.46
2022-12-20T08:32:17.456Z,25.36
2022-12-20T08:34:44.772Z,26.26
2022-12-20T08:37:14.955Z,25.83
2022-12-20T08:39:42.278Z,26.41
2022-12-20T08:42:09.215Z,25.98
2022-12-20T08:44:35.995Z,25.68
2022-12-20T08:47:02.706Z,27.28
2022-12-20T08:49:30.059Z,25.65
2022-12-20T08:51:57.828Z,24.83
2022-12-20T08:54:24.526Z,24.64
2022-12-20T08:56:51.216Z,25.17
2022-12-20T08:59:18.561Z,25.54
2022-12-20T09:01:45.942Z,24.75
2022-12-20T09:04:13.290Z,25.02
2022-12-20T09:06:40.968Z,25.54
2022-12-20T09:09:08.299Z,24.80
2022-12-20T09:11:35.007Z,25.76
2022-12-20T09:14:02.079Z,25.89
2022-12-20T09:16:31.916Z,27.80
2022-12-20T09:19:05.060Z,28.26
2022-12-20T09:21:32.959Z,25.39
2022-12-20T09:24:00.440Z,24.82
2022-12-20T09:26:28.046Z,26.11
2022-12-20T09:28:54.905Z,26.89
2022-12-20T09:31:23.821Z,24.82
2022-12-20T09:33:54.812Z,24.17
2022-12-20T09:36:23.904Z,25.53
2022-12-20T09:38:51.217Z,24.10
2022-12-20T09:41:43.215Z,24.01
2022-12-20T09:44:34.447Z,25.72
2022-12-20T09:47:10.587Z,26.72
2022-12-20T09:49:44.831Z,28.28
2022-12-20T09:52:31.130Z,25.80
2022-12-20T09:55:19.548Z,27.66
2022-12-20T09:58:04.773Z,25.52
2022-12-20T10:00:40.405Z,26.88
2022-12-20T10:03:14.997Z,25.04
2022-12-20T10:05:57.771Z,24.50
2022-12-20T10:08:25.157Z,25.51
2022-12-20T10:11:00.139Z,24.55
2022-12-20T10:14:02.444Z,24.65
2022-12-20T10:16:46.525Z,23.88
2022-12-20T10:19:35.197Z,23.02
2022-12-20T10:22:30.044Z,24.46
2022-12-20T10:25:11.900Z,23.24
2022-12-20T10:27:43.376Z,25.06
2022-12-20T10:30:23.592Z,26.35
2022-12-20T10:32:55.898Z,24.84
2022-12-20T10:35:37.505Z,25.18
2022-12-20T10:38:08.843Z,26.88
2022-12-20T10:41:18.944Z,26.55
2022-12-20T10:43:28.531Z,26.57
2022-12-20T10:46:02.452Z,25.48
2022-12-20T10:48:29.356Z,26.39
2022-12-20T10:51:06.206Z,27.12
2022-12-20T10:53:35.690Z,25.61
2022-12-20T10:56:29.134Z,25.87
2022-12-20T10:59:00.568Z,28.40
2022-12-20T11:01:34.049Z,27.10
2022-12-20T11:04:21.194Z,26.18
2022-12-20T11:06:48.186Z,25.49
2022-12-20T11:09:37.126Z,25.43
2022-12-20T11:12:12.265Z,24.65
2022-12-20T11:14:40.446Z,24.20
2022-12-20T11:17:17.880Z,26.88
2022-12-20T11:19:52.156Z,25.85
2022-12-20T11:22:28.315Z,24.57
2022-12-20T11:25:06.202Z,26.31
2022-12-20T11:27:55.401Z,24.55
2022-12-20T11:30:35.712Z,24.31
2022-12-20T11:33:20.856Z,23.54
2022-12-20T11:36:00.754Z,24.06
2022-12-20T11:38:36.715Z,24.32
2022-12-20T11:41:25.208Z,24.04
2022-12-20T11:44:24.437Z,25.54
2022-12-20T11:46:48.417Z,26.08
2022-12-20T11:49:57.581Z,25.94
2022-12-20T11:52:47.117Z,25.71
2022-12-20T11:55:14.192Z,26.15
2022-12-20T11:58:16.895Z,24.07
2022-12-20T12:00:38.139Z,24.20
2022-12-20T12:03:15.175Z,27.30
2022-12-20T12:06:01.133Z,27.68
2022-12-20T12:08:41.038Z,27.11
2022-12-20T12:11:55.673Z,23.99
2022-12-20T12:14:06.042Z,24.20
2022-12-20T12:16:42.859Z,23.99
2022-12-20T12:19:12.902Z,24.46
2022-12-20T12:22:02.262Z,26.04
2022-12-20T12:24:35.353Z,27.00
2022-12-20T12:27:02.959Z,26.30
2022-12-20T12:29:31.386Z,25.08
2022-12-20T12:32:11.715Z,25.80
2022-12-20T12:34:50.998Z,25.07
2022-12-20T12:37:34.987Z,25.63
2022-12-20T12:40:29.149Z,24.88
2022-12-20T12:43:14.859Z,25.12
2022-12-20T12:45:47.724Z,24.69
2022-12-20T12:48:22.473Z,25.14
2022-12-20T12:50:53.699Z,25.03
2022-12-20T12:53:22.506Z,24.73
2022-12-20T12:56:07.563Z,23.75
2022-12-20T12:58:48.500Z,25.28
2022-12-20T13:01:56.180Z,26.39
2022-12-20T13:04:30.202Z,29.49
2022-12-20T13:07:01.850Z,25.46
2022-12-20T13:09:28.496Z,25.89
2022-12-20T13:12:02.508Z,24.28
2022-12-20T13:14:35.767Z,24.38
2022-12-20T13:17:12.162Z,23.81
2022-12-20T13:19:49.260Z,24.48
2022-12-20T13:22:25.238Z,25.85
2022-12-20T13:25:04.503Z,24.42
2022-12-20T13:27:41.617Z,26.88
2022-12-20T13:30:12.097Z,28.65
2022-12-20T13:32:48.392Z,31.20
2022-12-20T13:35:24.680Z,30.48
2022-12-20T13:38:13.571Z,29.55
2022-12-20T13:40:55.348Z,26.24
2022-12-20T13:43:22.296Z,25.38
2022-12-20T13:45:58.960Z,27.60
2022-12-20T13:48:32.284Z,26.05
2022-12-20T13:50:59.727Z,26.03
2022-12-20T13:53:27.990Z,25.65
2022-12-20T13:55:56.733Z,26.02
2022-12-20T13:58:44.904Z,25.55
2022-12-20T14:01:13.855Z,28.08
2022-12-20T14:03:45.067Z,27.30
2022-12-20T14:06:14.924Z,26.79
2022-12-20T14:08:47.259Z,25.07
2022-12-20T14:11:20.250Z,25.44
2022-12-20T14:14:15.837Z,24.57
2022-12-20T14:16:42.552Z,26.86
2022-12-20T14:19:15.071Z,27.19
2022-12-20T14:21:45.521Z,25.99
2022-12-20T14:24:19.295Z,26.07
2022-12-20T14:26:48.729Z,28.50
2022-12-20T14:29:26.961Z,28.59
2022-12-20T14:31:53.955Z,29.16
2022-12-20T14:34:30.042Z,29.72
2022-12-20T14:37:27.543Z,29.88
2022-12-20T14:40:15.889Z,28.87
2022-12-20T14:42:42.869Z,27.02
2022-12-20T14:45:09.632Z,28.03
2022-12-20T14:47:38.069Z,27.78
2022-12-20T14:50:22.379Z,27.27
2022-12-20T14:52:49.460Z,27.64
2022-12-20T14:55:22.502Z,27.94
2022-12-20T14:57:52.701Z,28.60
2022-12-20T15:00:19.378Z,29.31
2022-12-20T15:02:52.763Z,30.54
2022-12-20T15:05:40.655Z,30.61
2022-12-20T15:08:17.173Z,29.01
2022-12-20T15:11:08.492Z,29.91
2022-12-20T15:13:42.552Z,28.81
2022-12-20T15:16:18.473Z,27.49
2022-12-20T15:18:46.575Z,28.46
2022-12-20T15:21:15.772Z,29.05
2022-12-20T15:23:51.719Z,26.84
2022-12-20T15:26:21.658Z,27.39
2022-12-20T15:28:48.518Z,27.82
2022-12-20T15:31:18.545Z,27.70
2022-12-20T15:33:46.733Z,28.53
2022-12-20T15:36:19.612Z,27.27
2022-12-20T15:39:11.162Z,26.97
2022-12-20T15:41:35.023Z,27.27
2022-12-20T15:44:13.227Z,28.54
2022-12-20T15:46:40.025Z,29.77
2022-12-20T15:49:06.977Z,31.46
2022-12-20T15:51:36.151Z,29.86
2022-12-20T15:54:05.826Z,27.65
2022-12-20T15:56:33.553Z,29.29
2022-12-20T15:59:00.731Z,29.15
2022-12-20T16:01:38.320Z,28.54
2022-12-20T16:04:08.310Z,29.14
2022-12-20T16:06:35.190Z,30.72
2022-12-20T16:09:02.005Z,29.95
2022-12-20T16:11:30.977Z,28.53
2022-12-20T16:13:59.897Z,27.24
2022-12-20T16:16:29.222Z,28.15
2022-12-20T16:18:56.446Z,27.62
2022-12-20T16:21:31.250Z,32.13
2022-12-20T16:23:58.643Z,28.29
2022-12-20T16:26:26.521Z,27.70
2022-12-20T16:28:55.180Z,27.91
2022-12-20T16:31:31.366Z,27.92
2022-12-20T16:34:01.150Z,26.48
2022-12-20T16:36:28.304Z,26.20
2022-12-20T16:38:55.470Z,26.80
2022-12-20T16:41:25.373Z,26.35
2022-12-20T16:43:52.421Z,25.91
2022-12-20T16:46:21.736Z,27.41
2022-12-20T16:48:50.237Z,25.63
2022-12-20T16:51:39.653Z,26.73
2022-12-20T16:54:21.730Z,27.24
2022-12-20T16:56:55.227Z,26.87
2022-12-20T16:59:23.765Z,27.00
2022-12-20T17:01:53.611Z,27.09
2022-12-20T17:04:21.519Z,27.79
2022-12-20T17:06:49.340Z,26.73
2022-12-20T17:09:16.611Z,27.95
2022-12-20T17:11:43.838Z,27.73
2022-12-20T17:14:13.741Z,27.05
2022-12-20T17:16:41.181Z,26.30
2022-12-20T17:19:10.891Z,25.44
2022-12-20T17:24:27.021Z,26.36
2022-12-20T17:26:55.377Z,26.54
2022-12-20T17:29:22.140Z,25.83
2022-12-20T17:31:49.681Z,25.74
2022-12-20T17:34:22.390Z,25.11
2022-12-20T17:36:52.011Z,24.77
2022-12-20T17:39:19.468Z,25.60
2022-12-20T17:41:47.677Z,26.20
2022-12-20T17:44:19.683Z,25.68
2022-12-20T17:46:47.975Z,25.13
2022-12-20T17:49:14.899Z,25.16
2022-12-20T17:51:43.066Z,24.85
2022-12-20T17:54:34.853Z,26.39
2022-12-20T17:57:06.163Z,25.36
2022-12-20T17:59:33.125Z,24.92
2022-12-20T18:02:00.199Z,25.38
2022-12-20T18:04:27.228Z,25.77
2022-12-20T18:06:54.094Z,27.26
2022-12-20T18:09:21.966Z,26.31
2022-12-20T18:11:50.158Z,26.37
2022-12-20T18:14:18.594Z,26.70
2022-12-20T18:16:46.122Z,27.62
2022-12-20T18:19:19.341Z,26.07
2022-12-20T18:21:47.129Z,25.86
2022-12-20T18:24:16.033Z,25.67
2022-12-20T18:26:44.304Z,25.99
2022-12-20T18:29:11.478Z,26.51
2022-12-20T18:31:38.588Z,28.53
2022-12-20T18:34:05.509Z,26.47
2022-12-20T18:36:35.300Z,25.40
2022-12-20T18:39:05.397Z,26.63
2022-12-20T18:41:32.935Z,26.85
2022-12-20T18:44:03.721Z,27.55
2022-12-20T18:46:31.204Z,26.77
2022-12-20T18:49:00.280Z,26.66
2022-12-20T18:51:36.666Z,28.93
2022-12-20T18:54:05.721Z,28.27
2022-12-20T18:56:35.419Z,26.71
2022-12-20T18:59:10.848Z,27.68
2022-12-20T19:01:40.308Z,27.20
2022-12-20T19:04:07.987Z,27.52
2022-12-20T19:06:36.414Z,29.24
2022-12-20T19:09:06.779Z,27.90
2022-12-20T19:11:34.103Z,27.55
2022-12-20T19:14:01.509Z,26.27
2022-12-20T19:16:32.852Z,29.25
2022-12-20T19:19:02.672Z,28.96
2022-12-20T19:21:35.761Z,27.07
2022-12-20T19:24:06.951Z,27.13
2022-12-20T19:26:35.912Z,27.22
2022-12-20T19:29:03.419Z,26.68
2022-12-20T19:31:33.353Z,26.02
2022-12-20T19:34:08.747Z,26.62
2022-12-20T19:36:39.283Z,26.46
2022-12-20T19:39:11.939Z,26.67
2022-12-20T19:41:38.704Z,28.08
2022-12-20T19:44:06.315Z,26.69
2022-12-20T19:46:33.531Z,25.72
2022-12-20T19:49:00.753Z,26.13
2022-12-20T19:51:28.559Z,25.90
2022-12-20T19:53:57.415Z,26.02
2022-12-20T19:56:27.017Z,25.20
2022-12-20T19:58:55.517Z,25.24
2022-12-20T20:01:26.238Z,25.83
2022-12-20T20:03:58.531Z,26.22
2022-12-20T20:06:26.473Z,26.08
2022-12-20T20:08:57.624Z,26.07
2022-12-20T20:11:24.761Z,26.69
2022-12-20T20:13:52.300Z,26.42
2022-12-20T20:16:22.625Z,30.01
2022-12-20T20:18:50.224Z,30.45
2022-12-20T20:21:21.813Z,29.52
2022-12-20T20:23:53.496Z,27.66
2022-12-20T20:26:26.602Z,26.09
2022-12-20T20:28:53.480Z,25.80
2022-12-20T20:31:21.601Z,27.12
2022-12-20T20:33:49.289Z,27.11
2022-12-20T20:36:21.854Z,29.76
2022-12-20T20:38:50.095Z,28.74
2022-12-20T20:41:17.287Z,29.17
2022-12-20T20:43:44.896Z,27.36
2022-12-20T20:46:14.196Z,27.10
2022-12-20T20:48:42.874Z,27.49
2022-12-20T20:51:10.618Z,26.97
2022-12-20T20:53:38.786Z,25.71
2022-12-20T20:56:07.112Z,26.66
2022-12-20T20:58:35.395Z,27.00
2022-12-20T21:01:05.288Z,28.44
2022-12-20T21:03:32.784Z,28.31
2022-12-20T21:08:47.357Z,28.18
2022-12-20T21:11:15.303Z,28.49
2022-12-20T21:13:42.168Z,27.92
2022-12-20T21:16:20.279Z,26.71
2022-12-20T21:18:52.163Z,28.34
2022-12-20T21:21:20.398Z,28.81
2022-12-20T21:23:48.713Z,28.57
2022-12-20T21:26:18.468Z,31.11
2022-12-20T21:28:45.619Z,28.79
2022-12-20T21:31:18.733Z,27.60
2022-12-20T21:33:48.743Z,27.73
2022-12-20T21:36:18.614Z,29.26
2022-12-20T21:38:53.733Z,28.45
2022-12-20T21:41:23.446Z,27.99
2022-12-20T21:43:52.527Z,27.73
2022-12-20T21:46:19.253Z,28.37
2022-12-20T21:48:46.994Z,28.54
2022-12-20T21:51:19.831Z,29.42
2022-12-20T21:53:56.927Z,29.24
2022-12-20T21:56:26.140Z,28.22
2022-12-20T21:58:54.392Z,26.45
2022-12-20T22:01:23.677Z,26.72
2022-12-20T22:03:52.455Z,26.70
2022-12-20T22:06:20.608Z,29.27
2022-12-20T22:08:47.864Z,27.84
2022-12-20T22:11:17.787Z,27.48
2022-12-20T22:13:45.147Z,27.82
2022-12-20T22:16:30.196Z,28.89
2022-12-20T22:18:59.219Z,28.43
2022-12-20T22:21:28.928Z,29.24
2022-12-20T22:23:57.131Z,27.34
2022-12-20T22:26:26.763Z,26.84
2022-12-20T22:29:00.096Z,26.48
2022-12-20T22:31:27.489Z,27.15
2022-12-20T22:33:55.688Z,26.00
2022-12-20T22:36:25.363Z,25.43
2022-12-20T22:38:56.559Z,26.82
2022-12-20T22:41:29.305Z,27.10
2022-12-20T22:43:58.655Z,25.91
2022-12-20T22:46:29.283Z,25.65
2022-12-20T22:48:57.079Z,25.52
2022-12-20T22:51:31.009Z,26.04
2022-12-20T22:53:59.233Z,25.75
2022-12-20T22:56:26.427Z,26.99
2022-12-20T22:58:53.328Z,25.76
2022-12-20T23:01:21.461Z,26.96
2022-12-20T23:03:49.840Z,27.40
2022-12-20T23:06:19.473Z,26.93
2022-12-20T23:08:46.862Z,26.82
2022-12-20T23:11:41.916Z,27.53
2022-12-20T23:14:31.474Z,27.14
2022-12-20T23:16:58.888Z,26.85
2022-12-20T23:19:26.254Z,27.42
2022-12-20T23:22:11.959Z,26.28
2022-12-20T23:24:38.852Z,26.93
2022-12-20T23:27:05.601Z,27.31
2022-12-20T23:29:32.710Z,28.61
2022-12-20T23:31:59.861Z,29.97
2022-12-20T23:34:26.741Z,28.52
2022-12-20T23:36:53.458Z,28.08
2022-12-20T23:39:20.175Z,29.08
2022-12-20T23:41:46.856Z,32.16
2022-12-20T23:44:13.557Z,28.45
2022-12-20T23:46:40.326Z,28.10
2022-12-20T23:49:07.050Z,28.06
2022-12-20T23:51:34.707Z,26.79
2022-12-20T23:54:01.697Z,27.61
2022-12-20T23:56:28.451Z,27.52
2022-12-20T23:58:55.661Z,27.80
